sensor_id;sensor_type;location;lat;lon;timestamp;P1;durP1;ratioP1;P2;durP2;ratioP2
11699;SDS011;5906;51.660;6.674;2023-05-13T00:02:15;22.60;;;15.57;;
11699;SDS011;5906;51.660;6.674;2023-05-13T00:04:42;22.50;;;14.67;;
11699;SDS011;5906;51.660;6.674;2023-05-13T00:07:09;21.23;;;15.27;;
11699;SDS011;5906;51.660;6.674;2023-05-13T00:09:36;21.47;;;14.70;;
11699;SDS011;5906;51.660;6.674;2023-05-13T00:12:03;22.80;;;16.10;;
11699;SDS011;5906;51.660;6.674;2023-05-13T00:14:31;21.10;;;15.73;;
11699;SDS011;5906;51.660;6.674;2023-05-13T00:16:57;20.63;;;14.57;;
11699;SDS011;5906;51.660;6.674;2023-05-13T00:19:27;22.00;;;16.17;;
11699;SDS011;5906;51.660;6.674;2023-05-13T00:21:54;19.90;;;14.87;;
11699;SDS011;5906;51.660;6.674;2023-05-13T00:24:21;24.50;;;15.20;;
11699;SDS011;5906;51.660;6.674;2023-05-13T00:26:48;17.63;;;14.67;;
11699;SDS011;5906;51.660;6.674;2023-05-13T00:29:15;21.10;;;15.10;;
11699;SDS011;5906;51.660;6.674;2023-05-13T00:31:42;24.43;;;15.30;;
11699;SDS011;5906;51.660;6.674;2023-05-13T00:34:09;18.10;;;14.93;;
11699;SDS011;5906;51.660;6.674;2023-05-13T00:36:36;23.20;;;15.67;;
11699;SDS011;5906;51.660;6.674;2023-05-13T00:39:03;21.00;;;15.23;;
11699;SDS011;5906;51.660;6.674;2023-05-13T00:41:30;17.13;;;14.67;;
11699;SDS011;5906;51.660;6.674;2023-05-13T00:43:58;19.43;;;14.67;;
11699;SDS011;5906;51.660;6.674;2023-05-13T00:46:25;18.70;;;14.73;;
11699;SDS011;5906;51.660;6.674;2023-05-13T00:48:59;21.13;;;14.40;;
11699;SDS011;5906;51.660;6.674;2023-05-13T00:51:26;25.80;;;14.80;;
11699;SDS011;5906;51.660;6.674;2023-05-13T00:53:54;21.30;;;14.47;;
11699;SDS011;5906;51.660;6.674;2023-05-13T00:56:24;29.33;;;14.97;;
11699;SDS011;5906;51.660;6.674;2023-05-13T00:58:51;20.83;;;13.67;;
11699;SDS011;5906;51.660;6.674;2023-05-13T01:03:52;20.10;;;14.23;;
11699;SDS011;5906;51.660;6.674;2023-05-13T01:09:25;27.87;;;13.50;;
11699;SDS011;5906;51.660;6.674;2023-05-13T01:12:06;17.73;;;13.27;;
11699;SDS011;5906;51.660;6.674;2023-05-13T01:14:36;21.43;;;13.53;;
11699;SDS011;5906;51.660;6.674;2023-05-13T01:17:11;23.20;;;13.13;;
11699;SDS011;5906;51.660;6.674;2023-05-13T01:19:56;21.23;;;13.50;;
11699;SDS011;5906;51.660;6.674;2023-05-13T01:22:25;18.77;;;14.37;;
11699;SDS011;5906;51.660;6.674;2023-05-13T01:24:53;19.13;;;13.70;;
11699;SDS011;5906;51.660;6.674;2023-05-13T01:27:20;18.70;;;13.60;;
11699;SDS011;5906;51.660;6.674;2023-05-13T01:29:47;24.93;;;16.03;;
11699;SDS011;5906;51.660;6.674;2023-05-13T01:32:15;20.50;;;14.23;;
11699;SDS011;5906;51.660;6.674;2023-05-13T01:34:43;19.03;;;14.33;;
11699;SDS011;5906;51.660;6.674;2023-05-13T01:37:12;27.83;;;14.20;;
11699;SDS011;5906;51.660;6.674;2023-05-13T01:39:39;29.17;;;14.40;;
11699;SDS011;5906;51.660;6.674;2023-05-13T01:42:07;18.40;;;13.73;;
11699;SDS011;5906;51.660;6.674;2023-05-13T01:44:34;21.90;;;14.17;;
11699;SDS011;5906;51.660;6.674;2023-05-13T01:47:01;17.47;;;13.83;;
11699;SDS011;5906;51.660;6.674;2023-05-13T01:49:28;17.90;;;13.77;;
11699;SDS011;5906;51.660;6.674;2023-05-13T01:51:55;17.80;;;13.07;;
11699;SDS011;5906;51.660;6.674;2023-05-13T01:54:23;19.57;;;14.00;;
11699;SDS011;5906;51.660;6.674;2023-05-13T01:56:51;17.60;;;13.10;;
11699;SDS011;5906;51.660;6.674;2023-05-13T01:59:18;20.40;;;13.93;;
11699;SDS011;5906;51.660;6.674;2023-05-13T02:01:48;21.93;;;14.00;;
11699;SDS011;5906;51.660;6.674;2023-05-13T02:04:15;19.20;;;13.27;;
11699;SDS011;5906;51.660;6.674;2023-05-13T02:06:42;22.30;;;13.60;;
11699;SDS011;5906;51.660;6.674;2023-05-13T02:09:09;23.17;;;14.17;;
11699;SDS011;5906;51.660;6.674;2023-05-13T02:11:37;20.23;;;13.07;;
11699;SDS011;5906;51.660;6.674;2023-05-13T02:14:04;22.30;;;13.23;;
11699;SDS011;5906;51.660;6.674;2023-05-13T02:16:31;17.80;;;12.43;;
11699;SDS011;5906;51.660;6.674;2023-05-13T02:18:58;19.63;;;14.43;;
11699;SDS011;5906;51.660;6.674;2023-05-13T02:21:26;19.70;;;15.43;;
11699;SDS011;5906;51.660;6.674;2023-05-13T02:23:53;20.53;;;13.80;;
11699;SDS011;5906;51.660;6.674;2023-05-13T02:26:20;24.13;;;15.70;;
11699;SDS011;5906;51.660;6.674;2023-05-13T02:28:47;19.50;;;14.00;;
11699;SDS011;5906;51.660;6.674;2023-05-13T02:31:14;24.33;;;15.13;;
11699;SDS011;5906;51.660;6.674;2023-05-13T02:33:41;24.37;;;13.67;;
11699;SDS011;5906;51.660;6.674;2023-05-13T02:36:08;20.00;;;14.07;;
11699;SDS011;5906;51.660;6.674;2023-05-13T02:38:35;19.07;;;13.03;;
11699;SDS011;5906;51.660;6.674;2023-05-13T02:41:02;17.97;;;13.73;;
11699;SDS011;5906;51.660;6.674;2023-05-13T02:43:30;24.27;;;15.77;;
11699;SDS011;5906;51.660;6.674;2023-05-13T02:45:57;20.53;;;13.77;;
11699;SDS011;5906;51.660;6.674;2023-05-13T02:48:23;20.30;;;14.10;;
11699;SDS011;5906;51.660;6.674;2023-05-13T02:50:51;19.50;;;13.70;;
11699;SDS011;5906;51.660;6.674;2023-05-13T02:53:18;20.30;;;14.77;;
11699;SDS011;5906;51.660;6.674;2023-05-13T02:55:45;20.17;;;14.80;;
11699;SDS011;5906;51.660;6.674;2023-05-13T02:58:12;21.53;;;15.07;;
11699;SDS011;5906;51.660;6.674;2023-05-13T03:00:39;22.13;;;14.57;;
11699;SDS011;5906;51.660;6.674;2023-05-13T03:03:06;22.07;;;15.40;;
11699;SDS011;5906;51.660;6.674;2023-05-13T03:05:33;20.13;;;15.20;;
11699;SDS011;5906;51.660;6.674;2023-05-13T03:08:00;21.80;;;13.93;;
11699;SDS011;5906;51.660;6.674;2023-05-13T03:10:27;23.67;;;13.90;;
11699;SDS011;5906;51.660;6.674;2023-05-13T03:12:54;23.90;;;13.60;;
11699;SDS011;5906;51.660;6.674;2023-05-13T03:15:21;23.80;;;14.83;;
11699;SDS011;5906;51.660;6.674;2023-05-13T03:17:48;22.40;;;15.17;;
11699;SDS011;5906;51.660;6.674;2023-05-13T03:20:15;23.33;;;14.87;;
11699;SDS011;5906;51.660;6.674;2023-05-13T03:22:42;19.50;;;14.67;;
11699;SDS011;5906;51.660;6.674;2023-05-13T03:25:09;22.33;;;15.80;;
11699;SDS011;5906;51.660;6.674;2023-05-13T03:27:37;23.33;;;15.00;;
11699;SDS011;5906;51.660;6.674;2023-05-13T03:30:04;18.50;;;14.37;;
11699;SDS011;5906;51.660;6.674;2023-05-13T03:32:32;28.83;;;14.37;;
11699;SDS011;5906;51.660;6.674;2023-05-13T03:35:00;19.20;;;14.17;;
11699;SDS011;5906;51.660;6.674;2023-05-13T03:37:27;20.83;;;15.53;;
11699;SDS011;5906;51.660;6.674;2023-05-13T03:39:54;21.20;;;15.30;;
11699;SDS011;5906;51.660;6.674;2023-05-13T03:42:21;20.20;;;14.37;;
11699;SDS011;5906;51.660;6.674;2023-05-13T03:44:49;21.80;;;13.90;;
11699;SDS011;5906;51.660;6.674;2023-05-13T03:47:16;18.80;;;14.97;;
11699;SDS011;5906;51.660;6.674;2023-05-13T03:49:43;24.33;;;16.03;;
11699;SDS011;5906;51.660;6.674;2023-05-13T03:52:11;32.53;;;15.17;;
11699;SDS011;5906;51.660;6.674;2023-05-13T03:54:38;20.40;;;13.50;;
11699;SDS011;5906;51.660;6.674;2023-05-13T03:57:06;23.53;;;14.43;;
11699;SDS011;5906;51.660;6.674;2023-05-13T03:59:33;21.40;;;14.20;;
11699;SDS011;5906;51.660;6.674;2023-05-13T04:02:00;21.37;;;14.00;;
11699;SDS011;5906;51.660;6.674;2023-05-13T04:04:27;22.00;;;15.57;;
11699;SDS011;5906;51.660;6.674;2023-05-13T04:06:54;23.57;;;13.93;;
11699;SDS011;5906;51.660;6.674;2023-05-13T04:09:21;19.80;;;14.90;;
11699;SDS011;5906;51.660;6.674;2023-05-13T04:11:48;20.53;;;14.93;;
11699;SDS011;5906;51.660;6.674;2023-05-13T04:14:15;29.50;;;14.80;;
11699;SDS011;5906;51.660;6.674;2023-05-13T04:16:43;20.17;;;14.40;;
11699;SDS011;5906;51.660;6.674;2023-05-13T04:19:10;18.57;;;14.40;;
11699;SDS011;5906;51.660;6.674;2023-05-13T04:21:37;20.57;;;14.30;;
11699;SDS011;5906;51.660;6.674;2023-05-13T04:24:04;26.03;;;14.17;;
11699;SDS011;5906;51.660;6.674;2023-05-13T04:26:31;26.63;;;14.50;;
11699;SDS011;5906;51.660;6.674;2023-05-13T04:28:59;17.67;;;13.83;;
11699;SDS011;5906;51.660;6.674;2023-05-13T04:31:26;24.40;;;13.50;;
11699;SDS011;5906;51.660;6.674;2023-05-13T04:33:53;20.47;;;15.73;;
11699;SDS011;5906;51.660;6.674;2023-05-13T04:36:20;23.07;;;14.40;;
11699;SDS011;5906;51.660;6.674;2023-05-13T04:38:47;29.00;;;16.33;;
11699;SDS011;5906;51.660;6.674;2023-05-13T04:41:14;22.67;;;15.77;;
11699;SDS011;5906;51.660;6.674;2023-05-13T04:43:41;23.63;;;17.10;;
11699;SDS011;5906;51.660;6.674;2023-05-13T04:46:08;22.63;;;16.80;;
11699;SDS011;5906;51.660;6.674;2023-05-13T04:48:35;25.20;;;17.70;;
11699;SDS011;5906;51.660;6.674;2023-05-13T04:51:03;26.30;;;17.30;;
11699;SDS011;5906;51.660;6.674;2023-05-13T04:53:30;24.60;;;16.90;;
11699;SDS011;5906;51.660;6.674;2023-05-13T04:55:57;26.33;;;16.17;;
11699;SDS011;5906;51.660;6.674;2023-05-13T04:58:26;23.87;;;15.17;;
11699;SDS011;5906;51.660;6.674;2023-05-13T05:00:53;19.43;;;15.50;;
11699;SDS011;5906;51.660;6.674;2023-05-13T05:03:20;19.20;;;13.50;;
11699;SDS011;5906;51.660;6.674;2023-05-13T05:05:48;22.03;;;14.97;;
11699;SDS011;5906;51.660;6.674;2023-05-13T05:08:15;22.70;;;13.40;;
11699;SDS011;5906;51.660;6.674;2023-05-13T05:10:42;19.20;;;12.53;;
11699;SDS011;5906;51.660;6.674;2023-05-13T05:13:09;18.73;;;12.87;;
11699;SDS011;5906;51.660;6.674;2023-05-13T05:15:36;25.90;;;12.67;;
11699;SDS011;5906;51.660;6.674;2023-05-13T05:18:03;16.93;;;11.53;;
11699;SDS011;5906;51.660;6.674;2023-05-13T05:20:31;15.93;;;11.93;;
11699;SDS011;5906;51.660;6.674;2023-05-13T05:22:58;38.17;;;12.97;;
11699;SDS011;5906;51.660;6.674;2023-05-13T05:25:27;17.23;;;11.50;;
11699;SDS011;5906;51.660;6.674;2023-05-13T05:27:54;16.90;;;11.40;;
11699;SDS011;5906;51.660;6.674;2023-05-13T05:30:22;13.50;;;11.30;;
11699;SDS011;5906;51.660;6.674;2023-05-13T05:32:49;16.43;;;11.10;;
11699;SDS011;5906;51.660;6.674;2023-05-13T05:35:17;19.00;;;11.03;;
11699;SDS011;5906;51.660;6.674;2023-05-13T05:37:45;14.53;;;11.47;;
11699;SDS011;5906;51.660;6.674;2023-05-13T05:40:12;18.23;;;11.10;;
11699;SDS011;5906;51.660;6.674;2023-05-13T05:42:39;14.67;;;11.10;;
11699;SDS011;5906;51.660;6.674;2023-05-13T05:45:06;13.27;;;10.70;;
11699;SDS011;5906;51.660;6.674;2023-05-13T05:47:34;19.00;;;11.73;;
11699;SDS011;5906;51.660;6.674;2023-05-13T05:50:01;16.27;;;11.30;;
11699;SDS011;5906;51.660;6.674;2023-05-13T05:52:28;16.67;;;11.27;;
11699;SDS011;5906;51.660;6.674;2023-05-13T05:54:55;15.93;;;12.20;;
11699;SDS011;5906;51.660;6.674;2023-05-13T05:57:22;17.63;;;12.37;;
11699;SDS011;5906;51.660;6.674;2023-05-13T05:59:49;14.53;;;11.53;;
11699;SDS011;5906;51.660;6.674;2023-05-13T06:02:16;17.37;;;11.60;;
11699;SDS011;5906;51.660;6.674;2023-05-13T06:04:44;15.43;;;11.00;;
11699;SDS011;5906;51.660;6.674;2023-05-13T06:07:11;14.00;;;11.20;;
11699;SDS011;5906;51.660;6.674;2023-05-13T06:09:38;15.97;;;12.23;;
11699;SDS011;5906;51.660;6.674;2023-05-13T06:12:05;16.90;;;11.43;;
11699;SDS011;5906;51.660;6.674;2023-05-13T06:14:33;12.70;;;11.23;;
11699;SDS011;5906;51.660;6.674;2023-05-13T06:17:00;14.37;;;10.70;;
11699;SDS011;5906;51.660;6.674;2023-05-13T06:19:27;15.03;;;10.73;;
11699;SDS011;5906;51.660;6.674;2023-05-13T06:21:54;18.13;;;11.17;;
11699;SDS011;5906;51.660;6.674;2023-05-13T06:24:21;15.00;;;11.10;;
11699;SDS011;5906;51.660;6.674;2023-05-13T06:26:48;14.70;;;11.10;;
11699;SDS011;5906;51.660;6.674;2023-05-13T06:29:15;14.17;;;11.50;;
11699;SDS011;5906;51.660;6.674;2023-05-13T06:31:43;22.80;;;12.30;;
11699;SDS011;5906;51.660;6.674;2023-05-13T06:34:10;15.93;;;11.40;;
11699;SDS011;5906;51.660;6.674;2023-05-13T06:36:42;16.60;;;11.77;;
11699;SDS011;5906;51.660;6.674;2023-05-13T06:39:09;18.63;;;11.73;;
11699;SDS011;5906;51.660;6.674;2023-05-13T06:41:37;17.13;;;10.80;;
11699;SDS011;5906;51.660;6.674;2023-05-13T06:44:07;14.20;;;12.03;;
11699;SDS011;5906;51.660;6.674;2023-05-13T06:46:34;13.23;;;10.83;;
11699;SDS011;5906;51.660;6.674;2023-05-13T06:49:01;26.20;;;11.80;;
11699;SDS011;5906;51.660;6.674;2023-05-13T06:51:28;14.87;;;11.27;;
11699;SDS011;5906;51.660;6.674;2023-05-13T06:53:58;14.47;;;11.83;;
11699;SDS011;5906;51.660;6.674;2023-05-13T06:56:25;16.30;;;11.00;;
11699;SDS011;5906;51.660;6.674;2023-05-13T06:58:52;17.90;;;10.50;;
11699;SDS011;5906;51.660;6.674;2023-05-13T07:01:19;14.60;;;10.47;;
11699;SDS011;5906;51.660;6.674;2023-05-13T07:03:46;15.23;;;11.87;;
11699;SDS011;5906;51.660;6.674;2023-05-13T07:06:13;14.70;;;10.33;;
11699;SDS011;5906;51.660;6.674;2023-05-13T07:08:40;11.37;;;9.67;;
11699;SDS011;5906;51.660;6.674;2023-05-13T07:11:07;17.07;;;10.70;;
11699;SDS011;5906;51.660;6.674;2023-05-13T07:13:34;10.70;;;9.60;;
11699;SDS011;5906;51.660;6.674;2023-05-13T07:16:01;13.53;;;10.87;;
11699;SDS011;5906;51.660;6.674;2023-05-13T07:18:28;13.10;;;10.17;;
11699;SDS011;5906;51.660;6.674;2023-05-13T07:20:55;12.17;;;9.77;;
11699;SDS011;5906;51.660;6.674;2023-05-13T07:23:22;11.37;;;10.07;;
11699;SDS011;5906;51.660;6.674;2023-05-13T07:25:50;15.37;;;10.10;;
11699;SDS011;5906;51.660;6.674;2023-05-13T07:28:18;19.43;;;9.93;;
11699;SDS011;5906;51.660;6.674;2023-05-13T07:30:47;12.37;;;10.60;;
11699;SDS011;5906;51.660;6.674;2023-05-13T07:33:14;14.80;;;10.30;;
11699;SDS011;5906;51.660;6.674;2023-05-13T07:35:41;15.40;;;10.20;;
11699;SDS011;5906;51.660;6.674;2023-05-13T07:38:08;14.07;;;9.93;;
11699;SDS011;5906;51.660;6.674;2023-05-13T07:40:36;11.03;;;9.47;;
11699;SDS011;5906;51.660;6.674;2023-05-13T07:43:03;13.23;;;10.43;;
11699;SDS011;5906;51.660;6.674;2023-05-13T07:45:31;14.20;;;10.13;;
11699;SDS011;5906;51.660;6.674;2023-05-13T07:47:58;12.53;;;9.90;;
11699;SDS011;5906;51.660;6.674;2023-05-13T07:50:25;12.83;;;9.50;;
11699;SDS011;5906;51.660;6.674;2023-05-13T07:52:52;12.23;;;9.73;;
11699;SDS011;5906;51.660;6.674;2023-05-13T07:55:19;11.37;;;9.47;;
11699;SDS011;5906;51.660;6.674;2023-05-13T07:57:47;10.70;;;9.00;;
11699;SDS011;5906;51.660;6.674;2023-05-13T08:00:17;10.80;;;8.70;;
11699;SDS011;5906;51.660;6.674;2023-05-13T08:02:44;12.13;;;8.27;;
11699;SDS011;5906;51.660;6.674;2023-05-13T08:05:12;11.07;;;8.20;;
11699;SDS011;5906;51.660;6.674;2023-05-13T08:07:39;11.60;;;7.97;;
11699;SDS011;5906;51.660;6.674;2023-05-13T08:10:06;13.03;;;9.10;;
11699;SDS011;5906;51.660;6.674;2023-05-13T08:12:33;10.50;;;8.10;;
11699;SDS011;5906;51.660;6.674;2023-05-13T08:15:01;9.80;;;8.37;;
11699;SDS011;5906;51.660;6.674;2023-05-13T08:17:33;11.23;;;7.93;;
11699;SDS011;5906;51.660;6.674;2023-05-13T08:20:00;13.30;;;8.03;;
11699;SDS011;5906;51.660;6.674;2023-05-13T08:22:29;9.50;;;8.50;;
11699;SDS011;5906;51.660;6.674;2023-05-13T08:24:56;12.07;;;9.10;;
11699;SDS011;5906;51.660;6.674;2023-05-13T08:27:24;9.80;;;7.97;;
11699;SDS011;5906;51.660;6.674;2023-05-13T08:29:52;9.40;;;8.30;;
11699;SDS011;5906;51.660;6.674;2023-05-13T08:32:18;14.50;;;8.50;;
11699;SDS011;5906;51.660;6.674;2023-05-13T08:34:45;10.50;;;8.57;;
11699;SDS011;5906;51.660;6.674;2023-05-13T08:37:12;10.00;;;7.73;;
11699;SDS011;5906;51.660;6.674;2023-05-13T08:39:39;10.83;;;8.10;;
11699;SDS011;5906;51.660;6.674;2023-05-13T08:42:06;9.50;;;7.30;;
11699;SDS011;5906;51.660;6.674;2023-05-13T08:44:37;9.23;;;6.60;;
11699;SDS011;5906;51.660;6.674;2023-05-13T08:49:55;8.70;;;6.60;;
11699;SDS011;5906;51.660;6.674;2023-05-13T08:52:23;7.63;;;6.77;;
11699;SDS011;5906;51.660;6.674;2023-05-13T08:54:51;9.40;;;6.50;;
11699;SDS011;5906;51.660;6.674;2023-05-13T08:57:19;8.37;;;6.50;;
11699;SDS011;5906;51.660;6.674;2023-05-13T08:59:46;14.97;;;6.70;;
11699;SDS011;5906;51.660;6.674;2023-05-13T09:02:13;11.97;;;6.13;;
11699;SDS011;5906;51.660;6.674;2023-05-13T09:04:40;8.90;;;6.87;;
11699;SDS011;5906;51.660;6.674;2023-05-13T09:07:09;7.73;;;5.70;;
11699;SDS011;5906;51.660;6.674;2023-05-13T09:09:37;10.80;;;6.43;;
11699;SDS011;5906;51.660;6.674;2023-05-13T09:12:04;9.93;;;6.10;;
11699;SDS011;5906;51.660;6.674;2023-05-13T09:14:33;7.07;;;5.63;;
11699;SDS011;5906;51.660;6.674;2023-05-13T09:17:00;12.73;;;6.60;;
11699;SDS011;5906;51.660;6.674;2023-05-13T09:19:27;6.13;;;5.50;;
11699;SDS011;5906;51.660;6.674;2023-05-13T09:21:55;9.70;;;6.47;;
11699;SDS011;5906;51.660;6.674;2023-05-13T09:24:22;6.90;;;5.60;;
11699;SDS011;5906;51.660;6.674;2023-05-13T09:26:50;14.67;;;5.67;;
11699;SDS011;5906;51.660;6.674;2023-05-13T09:29:24;8.50;;;5.43;;
11699;SDS011;5906;51.660;6.674;2023-05-13T09:31:55;5.97;;;5.30;;
11699;SDS011;5906;51.660;6.674;2023-05-13T09:36:57;8.70;;;6.20;;
11699;SDS011;5906;51.660;6.674;2023-05-13T09:39:26;9.70;;;6.30;;
11699;SDS011;5906;51.660;6.674;2023-05-13T09:41:54;13.87;;;7.90;;
11699;SDS011;5906;51.660;6.674;2023-05-13T09:44:21;8.23;;;5.27;;
11699;SDS011;5906;51.660;6.674;2023-05-13T09:46:52;7.57;;;5.60;;
11699;SDS011;5906;51.660;6.674;2023-05-13T09:49:24;5.93;;;5.13;;
11699;SDS011;5906;51.660;6.674;2023-05-13T09:51:53;11.13;;;5.83;;
11699;SDS011;5906;51.660;6.674;2023-05-13T09:54:20;8.83;;;6.27;;
11699;SDS011;5906;51.660;6.674;2023-05-13T09:56:47;5.90;;;5.30;;
11699;SDS011;5906;51.660;6.674;2023-05-13T09:59:14;11.30;;;5.60;;
11699;SDS011;5906;51.660;6.674;2023-05-13T10:01:41;8.03;;;5.50;;
11699;SDS011;5906;51.660;6.674;2023-05-13T10:04:09;8.10;;;6.33;;
11699;SDS011;5906;51.660;6.674;2023-05-13T10:06:36;8.50;;;5.40;;
11699;SDS011;5906;51.660;6.674;2023-05-13T10:09:04;6.80;;;5.17;;
11699;SDS011;5906;51.660;6.674;2023-05-13T10:11:34;5.57;;;4.97;;
11699;SDS011;5906;51.660;6.674;2023-05-13T10:14:04;10.33;;;5.40;;
11699;SDS011;5906;51.660;6.674;2023-05-13T10:16:31;8.43;;;5.03;;
11699;SDS011;5906;51.660;6.674;2023-05-13T10:18:59;8.60;;;5.23;;
11699;SDS011;5906;51.660;6.674;2023-05-13T10:21:27;7.23;;;5.10;;
11699;SDS011;5906;51.660;6.674;2023-05-13T10:23:55;6.70;;;5.13;;
11699;SDS011;5906;51.660;6.674;2023-05-13T10:26:22;8.77;;;4.97;;
11699;SDS011;5906;51.660;6.674;2023-05-13T10:28:49;9.50;;;5.00;;
11699;SDS011;5906;51.660;6.674;2023-05-13T10:31:16;6.80;;;4.60;;
11699;SDS011;5906;51.660;6.674;2023-05-13T10:33:43;6.17;;;5.03;;
11699;SDS011;5906;51.660;6.674;2023-05-13T10:44:56;7.87;;;4.47;;
11699;SDS011;5906;51.660;6.674;2023-05-13T10:47:23;8.03;;;5.10;;
11699;SDS011;5906;51.660;6.674;2023-05-13T10:49:51;8.70;;;4.50;;
11699;SDS011;5906;51.660;6.674;2023-05-13T10:52:19;7.53;;;5.10;;
11699;SDS011;5906;51.660;6.674;2023-05-13T10:54:59;5.50;;;4.07;;
11699;SDS011;5906;51.660;6.674;2023-05-13T10:57:29;5.03;;;4.20;;
11699;SDS011;5906;51.660;6.674;2023-05-13T11:00:11;5.30;;;4.03;;
11699;SDS011;5906;51.660;6.674;2023-05-13T11:02:40;6.30;;;4.40;;
11699;SDS011;5906;51.660;6.674;2023-05-13T11:05:08;5.77;;;5.07;;
11699;SDS011;5906;51.660;6.674;2023-05-13T11:07:53;11.93;;;5.03;;
11699;SDS011;5906;51.660;6.674;2023-05-13T11:10:23;6.67;;;4.50;;
11699;SDS011;5906;51.660;6.674;2023-05-13T11:15:44;4.93;;;3.93;;
11699;SDS011;5906;51.660;6.674;2023-05-13T11:18:16;10.10;;;4.57;;
11699;SDS011;5906;51.660;6.674;2023-05-13T11:20:46;8.13;;;5.10;;
11699;SDS011;5906;51.660;6.674;2023-05-13T11:23:19;14.20;;;4.73;;
11699;SDS011;5906;51.660;6.674;2023-05-13T11:26:07;7.00;;;4.40;;
11699;SDS011;5906;51.660;6.674;2023-05-13T11:28:52;7.10;;;4.20;;
11699;SDS011;5906;51.660;6.674;2023-05-13T11:31:26;12.33;;;5.93;;
11699;SDS011;5906;51.660;6.674;2023-05-13T11:36:37;5.73;;;4.00;;
11699;SDS011;5906;51.660;6.674;2023-05-13T11:39:14;15.43;;;7.57;;
11699;SDS011;5906;51.660;6.674;2023-05-13T11:41:46;24.07;;;9.87;;
11699;SDS011;5906;51.660;6.674;2023-05-13T11:44:18;9.60;;;4.73;;
11699;SDS011;5906;51.660;6.674;2023-05-13T11:54:47;9.43;;;5.07;;
11699;SDS011;5906;51.660;6.674;2023-05-13T11:57:18;8.10;;;4.17;;
11699;SDS011;5906;51.660;6.674;2023-05-13T11:59:48;11.30;;;4.80;;
11699;SDS011;5906;51.660;6.674;2023-05-13T12:02:18;10.43;;;4.27;;
11699;SDS011;5906;51.660;6.674;2023-05-13T12:04:50;5.20;;;4.20;;
11699;SDS011;5906;51.660;6.674;2023-05-13T12:07:21;6.83;;;4.30;;
11699;SDS011;5906;51.660;6.674;2023-05-13T12:09:50;5.83;;;3.80;;
11699;SDS011;5906;51.660;6.674;2023-05-13T12:12:20;14.00;;;4.47;;
11699;SDS011;5906;51.660;6.674;2023-05-13T12:14:48;6.27;;;4.50;;
11699;SDS011;5906;51.660;6.674;2023-05-13T12:17:16;6.83;;;4.80;;
11699;SDS011;5906;51.660;6.674;2023-05-13T12:22:49;6.90;;;4.57;;
11699;SDS011;5906;51.660;6.674;2023-05-13T12:25:37;6.10;;;4.10;;
11699;SDS011;5906;51.660;6.674;2023-05-13T12:33:24;4.93;;;3.80;;
11699;SDS011;5906;51.660;6.674;2023-05-13T12:35:54;13.63;;;5.83;;
11699;SDS011;5906;51.660;6.674;2023-05-13T12:38:57;4.60;;;4.17;;
11699;SDS011;5906;51.660;6.674;2023-05-13T12:41:27;4.80;;;4.00;;
11699;SDS011;5906;51.660;6.674;2023-05-13T12:43:57;7.10;;;4.40;;
11699;SDS011;5906;51.660;6.674;2023-05-13T12:46:25;7.80;;;4.30;;
11699;SDS011;5906;51.660;6.674;2023-05-13T12:48:56;7.23;;;4.93;;
11699;SDS011;5906;51.660;6.674;2023-05-13T12:51:24;5.67;;;4.40;;
11699;SDS011;5906;51.660;6.674;2023-05-13T12:53:52;7.13;;;4.10;;
11699;SDS011;5906;51.660;6.674;2023-05-13T12:56:20;5.97;;;4.07;;
11699;SDS011;5906;51.660;6.674;2023-05-13T12:58:49;7.57;;;4.30;;
11699;SDS011;5906;51.660;6.674;2023-05-13T13:01:16;4.77;;;4.13;;
11699;SDS011;5906;51.660;6.674;2023-05-13T13:03:44;6.93;;;4.33;;
11699;SDS011;5906;51.660;6.674;2023-05-13T13:06:12;9.67;;;4.03;;
11699;SDS011;5906;51.660;6.674;2023-05-13T13:08:39;13.37;;;4.00;;
11699;SDS011;5906;51.660;6.674;2023-05-13T13:11:06;4.30;;;3.53;;
11699;SDS011;5906;51.660;6.674;2023-05-13T13:13:34;6.17;;;3.70;;
11699;SDS011;5906;51.660;6.674;2023-05-13T13:16:07;6.63;;;4.10;;
11699;SDS011;5906;51.660;6.674;2023-05-13T13:18:34;11.60;;;3.93;;
11699;SDS011;5906;51.660;6.674;2023-05-13T13:21:01;4.50;;;4.07;;
11699;SDS011;5906;51.660;6.674;2023-05-13T13:23:30;6.10;;;4.53;;
11699;SDS011;5906;51.660;6.674;2023-05-13T13:25:57;8.40;;;3.57;;
11699;SDS011;5906;51.660;6.674;2023-05-13T13:28:25;5.47;;;4.27;;
11699;SDS011;5906;51.660;6.674;2023-05-13T13:30:53;6.17;;;4.00;;
11699;SDS011;5906;51.660;6.674;2023-05-13T13:33:20;5.43;;;3.60;;
11699;SDS011;5906;51.660;6.674;2023-05-13T13:35:47;5.67;;;4.07;;
11699;SDS011;5906;51.660;6.674;2023-05-13T13:38:15;7.47;;;4.40;;
11699;SDS011;5906;51.660;6.674;2023-05-13T13:40:42;11.07;;;4.43;;
11699;SDS011;5906;51.660;6.674;2023-05-13T13:43:09;9.30;;;4.13;;
11699;SDS011;5906;51.660;6.674;2023-05-13T13:45:36;5.53;;;4.30;;
11699;SDS011;5906;51.660;6.674;2023-05-13T13:48:04;7.70;;;4.20;;
11699;SDS011;5906;51.660;6.674;2023-05-13T13:50:31;6.40;;;3.83;;
11699;SDS011;5906;51.660;6.674;2023-05-13T13:52:58;9.60;;;4.80;;
11699;SDS011;5906;51.660;6.674;2023-05-13T13:55:26;7.93;;;4.40;;
11699;SDS011;5906;51.660;6.674;2023-05-13T13:57:53;9.20;;;4.30;;
11699;SDS011;5906;51.660;6.674;2023-05-13T14:00:20;4.87;;;3.57;;
11699;SDS011;5906;51.660;6.674;2023-05-13T14:02:47;5.40;;;3.90;;
11699;SDS011;5906;51.660;6.674;2023-05-13T14:05:14;9.90;;;4.20;;
11699;SDS011;5906;51.660;6.674;2023-05-13T14:07:42;6.73;;;5.07;;
11699;SDS011;5906;51.660;6.674;2023-05-13T14:10:09;7.90;;;4.20;;
11699;SDS011;5906;51.660;6.674;2023-05-13T14:12:36;4.83;;;3.80;;
11699;SDS011;5906;51.660;6.674;2023-05-13T14:15:03;4.70;;;3.60;;
11699;SDS011;5906;51.660;6.674;2023-05-13T14:17:31;4.83;;;3.97;;
11699;SDS011;5906;51.660;6.674;2023-05-13T14:19:59;7.00;;;4.13;;
11699;SDS011;5906;51.660;6.674;2023-05-13T14:22:26;6.30;;;3.80;;
11699;SDS011;5906;51.660;6.674;2023-05-13T14:24:53;6.33;;;4.07;;
11699;SDS011;5906;51.660;6.674;2023-05-13T14:27:20;5.13;;;4.13;;
11699;SDS011;5906;51.660;6.674;2023-05-13T14:29:50;8.97;;;4.20;;
11699;SDS011;5906;51.660;6.674;2023-05-13T14:32:17;8.50;;;3.60;;
11699;SDS011;5906;51.660;6.674;2023-05-13T14:34:44;7.53;;;4.30;;
11699;SDS011;5906;51.660;6.674;2023-05-13T14:37:11;9.03;;;4.57;;
11699;SDS011;5906;51.660;6.674;2023-05-13T14:39:38;7.83;;;4.90;;
11699;SDS011;5906;51.660;6.674;2023-05-13T14:42:06;5.60;;;4.00;;
11699;SDS011;5906;51.660;6.674;2023-05-13T14:44:33;4.90;;;4.40;;
11699;SDS011;5906;51.660;6.674;2023-05-13T14:47:00;5.13;;;4.63;;
11699;SDS011;5906;51.660;6.674;2023-05-13T14:49:28;9.70;;;4.70;;
11699;SDS011;5906;51.660;6.674;2023-05-13T14:51:55;7.53;;;4.57;;
11699;SDS011;5906;51.660;6.674;2023-05-13T14:54:22;8.93;;;4.50;;
11699;SDS011;5906;51.660;6.674;2023-05-13T14:56:49;6.87;;;4.30;;
11699;SDS011;5906;51.660;6.674;2023-05-13T14:59:17;8.00;;;4.50;;
11699;SDS011;5906;51.660;6.674;2023-05-13T15:01:45;7.53;;;4.30;;
11699;SDS011;5906;51.660;6.674;2023-05-13T15:04:12;4.83;;;3.97;;
11699;SDS011;5906;51.660;6.674;2023-05-13T15:06:39;5.80;;;4.17;;
11699;SDS011;5906;51.660;6.674;2023-05-13T15:09:07;5.83;;;4.27;;
11699;SDS011;5906;51.660;6.674;2023-05-13T15:11:34;6.90;;;4.40;;
11699;SDS011;5906;51.660;6.674;2023-05-13T15:14:02;4.67;;;4.17;;
11699;SDS011;5906;51.660;6.674;2023-05-13T15:16:29;5.53;;;4.50;;
11699;SDS011;5906;51.660;6.674;2023-05-13T15:18:56;7.57;;;4.23;;
11699;SDS011;5906;51.660;6.674;2023-05-13T15:21:24;5.90;;;4.30;;
11699;SDS011;5906;51.660;6.674;2023-05-13T15:23:51;8.00;;;4.60;;
11699;SDS011;5906;51.660;6.674;2023-05-13T15:26:18;6.93;;;4.47;;
11699;SDS011;5906;51.660;6.674;2023-05-13T15:28:46;5.90;;;4.63;;
11699;SDS011;5906;51.660;6.674;2023-05-13T15:31:13;4.97;;;4.47;;
11699;SDS011;5906;51.660;6.674;2023-05-13T15:33:40;5.47;;;4.20;;